createdAt,value
2023-05-22T00:01:22.689Z,19.88
2023-05-22T00:08:06.402Z,20.38
2023-05-22T00:14:48.776Z,21.50
2023-05-22T00:21:34.891Z,17.17
2023-05-22T00:28:17.692Z,19.05
2023-05-22T00:35:01.292Z,18.08
2023-05-22T00:41:43.651Z,18.25
2023-05-22T00:48:26.265Z,20.73
2023-05-22T00:55:12.423Z,16.48
2023-05-22T01:01:55.814Z,18.55
2023-05-22T01:08:38.264Z,20.10
2023-05-22T01:15:39.521Z,19.25
2023-05-22T01:22:50.045Z,18.15
2023-05-22T01:30:11.452Z,20.63
2023-05-22T01:36:55.523Z,19.58
2023-05-22T01:43:38.357Z,18.10
2023-05-22T01:50:22.108Z,19.75
2023-05-22T01:57:22.097Z,22.42
2023-05-22T02:04:05.775Z,20.65
2023-05-22T02:10:50.299Z,22.95
2023-05-22T02:17:40.203Z,19.00
2023-05-22T02:24:24.042Z,20.23
2023-05-22T02:31:07.454Z,19.35
2023-05-22T02:37:49.828Z,24.88
2023-05-22T02:44:32.165Z,19.42
2023-05-22T02:51:14.821Z,27.52
2023-05-22T02:57:57.226Z,20.48
2023-05-22T03:04:41.954Z,19.17
2023-05-22T03:11:24.723Z,20.83
2023-05-22T03:18:07.288Z,32.63
2023-05-22T03:24:49.751Z,19.13
2023-05-22T03:31:33.669Z,22.17
2023-05-22T03:38:22.384Z,18.83
2023-05-22T03:45:05.649Z,19.60
2023-05-22T03:51:48.254Z,20.52
2023-05-22T03:58:31.678Z,19.20
2023-05-22T04:05:15.099Z,24.08
2023-05-22T04:11:57.477Z,18.73
2023-05-22T04:18:39.803Z,19.50
2023-05-22T04:25:22.181Z,21.98
2023-05-22T04:32:06.239Z,17.48
2023-05-22T04:38:50.225Z,23.10
2023-05-22T04:45:32.889Z,16.45
2023-05-22T04:52:15.791Z,17.58
2023-05-22T04:58:58.639Z,20.88
2023-05-22T05:05:41.164Z,14.88
2023-05-22T05:12:23.892Z,15.48
2023-05-22T05:19:06.909Z,18.27
2023-05-22T05:25:49.574Z,15.40
2023-05-22T05:32:32.047Z,14.63
2023-05-22T05:39:37.401Z,17.25
2023-05-22T05:46:22.384Z,18.55
2023-05-22T05:53:06.130Z,16.75
2023-05-22T05:59:49.801Z,16.55
2023-05-22T06:06:51.751Z,18.45
2023-05-22T06:13:34.123Z,16.27
2023-05-22T06:20:16.848Z,21.27
2023-05-22T06:26:59.792Z,17.50
2023-05-22T06:33:43.294Z,16.65
2023-05-22T06:40:26.281Z,15.95
2023-05-22T06:47:12.966Z,15.88
2023-05-22T06:53:57.104Z,15.00
2023-05-22T07:00:44.273Z,15.80
2023-05-22T07:07:34.106Z,15.18
2023-05-22T07:14:18.146Z,14.85
2023-05-22T07:21:01.582Z,15.23
2023-05-22T07:27:44.890Z,13.73
2023-05-22T07:34:33.075Z,14.30
2023-05-22T07:41:17.014Z,12.88
2023-05-22T07:48:01.893Z,12.55
2023-05-22T07:54:46.370Z,12.80
2023-05-22T08:01:29.895Z,12.23
2023-05-22T08:08:12.388Z,12.95
2023-05-22T08:14:54.700Z,13.23
2023-05-22T08:21:37.445Z,13.77
2023-05-22T08:28:20.006Z,12.20
2023-05-22T08:35:02.874Z,14.55
2023-05-22T08:41:45.481Z,13.68
2023-05-22T08:48:31.808Z,12.90
2023-05-22T08:55:14.353Z,13.80
2023-05-22T09:01:58.019Z,13.00
2023-05-22T09:08:42.702Z,12.57
2023-05-22T09:15:29.889Z,14.10
2023-05-22T09:22:12.649Z,11.77
2023-05-22T09:28:55.108Z,11.40
2023-05-22T09:35:39.499Z,10.80
2023-05-22T09:42:24.851Z,12.88
2023-05-22T09:49:07.225Z,12.05
2023-05-22T09:55:51.144Z,11.15
2023-05-22T10:02:34.038Z,10.52
2023-05-22T10:09:19.672Z,11.45
2023-05-22T10:16:04.544Z,11.85
2023-05-22T10:22:49.005Z,12.63
2023-05-22T10:29:40.479Z,12.30
2023-05-22T10:36:50.147Z,11.43
2023-05-22T10:43:32.954Z,10.82
2023-05-22T10:50:17.947Z,11.65
2023-05-22T10:57:11.810Z,13.27
2023-05-22T11:03:56.426Z,12.90
2023-05-22T11:10:59.147Z,11.32
2023-05-22T11:17:51.284Z,11.63
2023-05-22T11:24:34.382Z,13.50
2023-05-22T11:31:17.686Z,11.73
2023-05-22T11:38:04.808Z,10.90
2023-05-22T11:44:47.341Z,10.52
2023-05-22T11:51:29.913Z,10.93
2023-05-22T11:58:12.333Z,10.43
2023-05-22T12:04:56.067Z,9.73
2023-05-22T12:11:38.476Z,9.98
2023-05-22T12:18:21.293Z,13.60
2023-05-22T12:25:14.209Z,10.57
2023-05-22T12:32:05.870Z,12.73
2023-05-22T12:38:48.252Z,12.93
2023-05-22T12:45:30.889Z,10.55
2023-05-22T12:52:13.366Z,11.18
2023-05-22T12:58:59.655Z,11.27
2023-05-22T13:05:42.301Z,12.15
2023-05-22T13:12:27.140Z,11.07
2023-05-22T13:19:09.871Z,10.60
2023-05-22T13:25:52.294Z,10.60
2023-05-22T13:32:35.219Z,11.18
2023-05-22T13:39:17.880Z,10.20
2023-05-22T13:46:00.396Z,9.00
2023-05-22T13:52:42.782Z,9.13
2023-05-22T13:59:25.321Z,9.10
2023-05-22T14:06:10.076Z,8.85
2023-05-22T14:12:52.539Z,9.40
2023-05-22T14:19:35.736Z,7.15
2023-05-22T14:26:18.218Z,9.35
2023-05-22T14:33:00.949Z,9.68
2023-05-22T14:39:43.315Z,11.07
2023-05-22T14:46:26.951Z,10.00
2023-05-22T14:53:09.574Z,8.73
2023-05-22T14:59:51.957Z,12.82
2023-05-22T15:06:35.027Z,8.93
2023-05-22T15:13:17.493Z,9.52
2023-05-22T15:19:59.966Z,9.57
2023-05-22T15:26:42.320Z,10.20
2023-05-22T15:33:24.734Z,9.27
2023-05-22T15:40:09.635Z,10.52
2023-05-22T15:46:52.042Z,7.07
2023-05-22T15:53:34.431Z,10.95
2023-05-22T16:00:18.505Z,6.63
2023-05-22T16:07:01.046Z,7.13
2023-05-22T16:13:43.525Z,7.32
2023-05-22T16:20:25.972Z,8.43
2023-05-22T16:27:08.437Z,6.80
2023-05-22T16:33:50.888Z,8.77
2023-05-22T16:40:34.251Z,9.32
2023-05-22T16:47:16.632Z,7.47
2023-05-22T16:54:01.722Z,9.05
2023-05-22T17:00:44.132Z,8.90
2023-05-22T17:07:26.696Z,7.15
2023-05-22T17:14:09.385Z,7.50
2023-05-22T17:20:56.061Z,7.97
2023-05-22T17:27:38.767Z,6.03
2023-05-22T17:34:21.198Z,6.75
2023-05-22T17:41:03.666Z,7.72
2023-05-22T17:47:46.678Z,10.18
2023-05-22T17:54:35.759Z,7.75
2023-05-22T18:01:18.899Z,9.25
2023-05-22T18:08:01.384Z,13.15
2023-05-22T18:14:43.728Z,9.63
2023-05-22T18:21:26.140Z,9.18
2023-05-22T18:28:08.538Z,11.27
2023-05-22T18:34:51.992Z,9.57
2023-05-22T18:41:35.813Z,9.90
2023-05-22T18:48:18.144Z,10.77
2023-05-22T18:55:00.833Z,9.32
2023-05-22T19:01:44.513Z,13.93
2023-05-22T19:08:27.305Z,10.82
2023-05-22T19:15:10.419Z,12.45
2023-05-22T19:21:53.793Z,10.63
2023-05-22T19:28:36.217Z,10.45
2023-05-22T19:35:18.736Z,12.00
2023-05-22T19:42:01.108Z,9.68
2023-05-22T19:48:43.466Z,12.40
2023-05-22T19:55:25.835Z,12.10
2023-05-22T20:02:08.359Z,10.48
2023-05-22T20:08:50.939Z,11.35
2023-05-22T20:15:35.550Z,14.65
2023-05-22T20:22:17.948Z,11.75
2023-05-22T20:29:02.533Z,12.48
2023-05-22T20:35:45.041Z,12.43
2023-05-22T20:42:28.571Z,12.73
2023-05-22T20:49:12.241Z,14.48
2023-05-22T20:55:54.622Z,12.57
2023-05-22T21:02:38.882Z,13.48
2023-05-22T21:09:21.378Z,11.63
2023-05-22T21:16:03.829Z,10.70
2023-05-22T21:22:48.060Z,11.43
2023-05-22T21:29:30.485Z,10.55
2023-05-22T21:36:12.858Z,12.85
2023-05-22T21:42:55.306Z,11.70
2023-05-22T21:49:39.544Z,10.85
2023-05-22T21:56:22.234Z,9.98
2023-05-22T22:03:04.848Z,9.85
2023-05-22T22:09:47.232Z,9.48
2023-05-22T22:16:29.603Z,10.68
2023-05-22T22:23:12.158Z,10.45
2023-05-22T22:29:54.482Z,9.20
2023-05-22T22:36:36.992Z,9.75
2023-05-22T22:43:19.358Z,10.23
2023-05-22T22:50:02.200Z,10.15
2023-05-22T22:56:46.684Z,9.27
2023-05-22T23:03:29.017Z,9.30
2023-05-22T23:10:11.430Z,12.32
2023-05-22T23:16:54.112Z,11.13
2023-05-22T23:23:36.470Z,12.55
2023-05-22T23:30:18.889Z,17.77
2023-05-22T23:37:01.320Z,15.77
2023-05-22T23:43:44.198Z,20.52
2023-05-22T23:50:26.582Z,24.73
2023-05-22T23:57:08.985Z,27.20
